Raleigh, NC (27603)

11:04 AM EST on March 06, 2015 (GMT -0500)
Dunhaven | Change Station
CLOSE
Current Station
Personal Weather Station
Location: Garner, NC
Elevation: 259 ft
Nearby Weather Stations

Elev 259 ft 35.67 °N, 78.62 °W | Updated 3 minutes ago

Clear
Clear
30.6 °F
Feels Like 31 °F
N
2.0
Wind Variable Wind from South
Gusts 5.0 mph

Today
High -- | Low -- °F
--% Chance of Precip.
Yesterday
High -- | Low -- °F
Precip. -- in
6:38 AM 6:14 PM
Full, 99% visible
Pressure 30.53 in
Visibility 10.0 miles
Clouds Few 4500 ft
Scattered Clouds 20000 ft
Windchill 31 °F
Dew Point 14 °F
Humidity 50%
Rainfall in
Snow Depth Not available.
UV 5 out of 12
Pollen 3.70 out of 12
Air Quality Not available.
Flu Activity Not available.
METAR KRDU 061551Z 05010G16KT 010V070 10SM FEW045 SCT200 M02/M14 A3052 RMK AO2 SLP339 T10171144

More Conditions Fewer Conditions

Pressure 30.53 in
Visibility 10.0 miles
Clouds Few 4500 ft
Scattered Clouds 20000 ft
Windchill 31 °F
Dew Point 14 °F
Humidity 50%
Rainfall in
Snow Depth Not available.
UV 5 out of 12
Pollen 3.70 out of 12
Air Quality Not available.
Flu Activity Not available.
METAR KRDU 061551Z 05010G16KT 010V070 10SM FEW045 SCT200 M02/M14 A3052 RMK AO2 SLP339 T10171144

More Conditions Fewer Conditions

10-Day Weather Forecast

Almanac

Astronomy

Mar. 06, 2015 Rise Set
Actual Time
Civil Twilight
Nautical Twilight
Astronomical Twilight
Moon
Length of Visible Light
Length of Day
Tomorrow will be .
, % of the Moon is Illuminated

Today's Extremes

State Highs State Lows

Community

WunderPhotos

Upload Photos

1,803,327 photos uploaded!

WunderBlogs® & News

Nearby

Air Quality

  Air Quality AQ Index Pollutant
Not available.

Snow Depth

Station Depth Elevation

Earthquake Activity

City Distance Mag. Time & Date
Minimum magnitude displayed is 2.5.

Coastal Water Temperatures

Place Temperature

Nearby Weather Stations